createdAt,value
2019-02-20T00:00:24.240Z,70.97
2019-02-20T00:00:57.475Z,70.97
2019-02-20T00:01:30.712Z,71.01
2019-02-20T00:02:01.931Z,71.15
2019-02-20T00:02:33.249Z,71.15
2019-02-20T00:03:04.495Z,71.12
2019-02-20T00:03:36.834Z,71.09
2019-02-20T00:04:08.083Z,71.16
2019-02-20T00:04:39.375Z,71.12
2019-02-20T00:05:10.629Z,71.21
2019-02-20T00:05:41.998Z,71.18
2019-02-20T00:06:13.225Z,71.25
2019-02-20T00:06:44.670Z,71.23
2019-02-20T00:07:16.915Z,71.36
2019-02-20T00:07:48.260Z,71.12
2019-02-20T00:08:19.727Z,71.16
2019-02-20T00:08:51.151Z,71.20
2019-02-20T00:09:22.425Z,71.19
2019-02-20T00:09:53.808Z,71.19
2019-02-20T00:10:25.042Z,71.11
2019-02-20T00:10:56.434Z,71.05
2019-02-20T00:11:27.681Z,70.69
2019-02-20T00:11:59.029Z,70.63
2019-02-20T00:12:30.302Z,70.77
2019-02-20T00:13:01.723Z,70.90
2019-02-20T00:13:32.973Z,70.87
2019-02-20T00:14:04.363Z,70.87
2019-02-20T00:14:35.732Z,70.78
2019-02-20T00:15:07.109Z,70.73
2019-02-20T00:15:38.563Z,70.70
2019-02-20T00:16:09.882Z,70.65
2019-02-20T00:16:41.267Z,70.35
2019-02-20T00:17:12.629Z,70.35
2019-02-20T00:17:43.901Z,70.41
2019-02-20T00:18:15.304Z,70.41
2019-02-20T00:18:46.563Z,70.47
2019-02-20T00:19:17.875Z,70.47
2019-02-20T00:19:49.123Z,70.45
2019-02-20T00:20:20.452Z,70.52
2019-02-20T00:20:51.708Z,70.40
2019-02-20T00:21:23.127Z,70.46
2019-02-20T00:21:54.465Z,70.34
2019-02-20T00:22:25.795Z,70.23
2019-02-20T00:22:57.049Z,70.27
2019-02-20T00:23:28.428Z,70.26
2019-02-20T00:23:59.735Z,70.22
2019-02-20T00:24:31.048Z,70.26
2019-02-20T00:25:04.585Z,70.13
2019-02-20T00:25:35.896Z,70.10
2019-02-20T00:26:07.147Z,70.16
2019-02-20T00:26:38.489Z,70.02
2019-02-20T00:27:09.740Z,70.02
2019-02-20T00:27:41.048Z,70.04
2019-02-20T00:28:12.319Z,70.03
2019-02-20T00:28:43.765Z,69.97
2019-02-20T00:29:15.010Z,70.07
2019-02-20T00:29:46.374Z,69.93
2019-02-20T00:30:17.624Z,70.02
2019-02-20T00:30:49.065Z,69.98
2019-02-20T00:31:20.438Z,70.02
2019-02-20T00:31:51.804Z,69.99
2019-02-20T00:32:23.185Z,70.00
2019-02-20T00:32:54.514Z,70.00
2019-02-20T00:33:25.936Z,69.90
2019-02-20T00:33:57.362Z,69.90
2019-02-20T00:34:28.721Z,69.79
2019-02-20T00:35:00.105Z,69.79
2019-02-20T00:35:31.637Z,70.09
2019-02-20T00:36:03.014Z,69.96
2019-02-20T00:36:34.435Z,69.93
2019-02-20T00:37:05.683Z,69.93
2019-02-20T00:37:37.029Z,70.00
2019-02-20T00:38:08.303Z,70.00
2019-02-20T00:38:39.715Z,69.93
2019-02-20T00:39:11.086Z,70.14
2019-02-20T00:39:42.396Z,70.14
2019-02-20T00:40:13.735Z,70.04
2019-02-20T00:40:45.256Z,70.11
2019-02-20T00:41:16.583Z,70.22
2019-02-20T00:41:47.963Z,69.99
2019-02-20T00:42:19.241Z,70.25
2019-02-20T00:42:50.649Z,70.22
2019-02-20T00:43:21.903Z,70.22
2019-02-20T00:43:55.133Z,70.36
2019-02-20T00:44:37.955Z,70.36
2019-02-20T00:45:30.139Z,70.26
2019-02-20T00:46:09.151Z,70.23
2019-02-20T00:46:48.090Z,70.18
2019-02-20T00:47:29.886Z,70.18
2019-02-20T00:48:11.934Z,70.20
2019-02-20T00:48:45.089Z,70.35
2019-02-20T00:49:18.312Z,70.11
2019-02-20T00:49:49.545Z,70.11
2019-02-20T00:50:22.726Z,70.31
2019-02-20T00:50:55.859Z,70.18
2019-02-20T00:51:45.617Z,70.27
2019-02-20T00:52:19.772Z,70.27
2019-02-20T00:52:53.012Z,70.10
2019-02-20T00:53:26.188Z,70.24
2019-02-20T00:54:02.170Z,70.25
2019-02-20T00:54:34.414Z,70.28
2019-02-20T00:55:07.745Z,70.22
2019-02-20T00:55:38.968Z,70.30
2019-02-20T00:56:10.322Z,70.31
2019-02-20T00:56:41.599Z,70.29
2019-02-20T00:57:12.892Z,70.25
2019-02-20T00:57:44.468Z,70.25
2019-02-20T00:58:15.735Z,70.26
2019-02-20T00:58:47.024Z,70.22
2019-02-20T00:59:18.308Z,70.24
2019-02-20T00:59:49.613Z,70.24
2019-02-20T01:00:20.880Z,70.22
2019-02-20T01:00:52.147Z,70.13
2019-02-20T01:01:23.441Z,70.13
2019-02-20T01:01:54.823Z,70.12
2019-02-20T01:02:26.084Z,70.33
2019-02-20T01:02:57.374Z,70.16
2019-02-20T01:03:28.662Z,70.02
2019-02-20T01:04:00.326Z,69.95
2019-02-20T01:04:31.597Z,69.94
2019-02-20T01:05:04.569Z,70.01
2019-02-20T01:05:35.938Z,69.90
2019-02-20T01:06:07.251Z,69.80
2019-02-20T01:06:38.677Z,69.68
2019-02-20T01:07:09.921Z,69.71
2019-02-20T01:07:41.417Z,69.78
2019-02-20T01:08:12.685Z,69.77
2019-02-20T01:08:43.995Z,69.75
2019-02-20T01:09:15.257Z,69.75
2019-02-20T01:09:46.609Z,69.67
2019-02-20T01:10:17.867Z,69.77
2019-02-20T01:10:49.155Z,69.58
2019-02-20T01:11:20.434Z,69.66
2019-02-20T01:11:51.709Z,69.73
2019-02-20T01:12:22.968Z,69.73
2019-02-20T01:12:54.290Z,69.70
2019-02-20T01:13:25.648Z,69.70
2019-02-20T01:13:56.986Z,69.52
2019-02-20T01:14:28.287Z,69.54
2019-02-20T01:14:59.566Z,69.36
2019-02-20T01:15:30.842Z,69.50
2019-02-20T01:16:02.122Z,69.55
2019-02-20T01:16:33.413Z,69.53
2019-02-20T01:17:04.718Z,69.56
2019-02-20T01:17:36.010Z,69.13
2019-02-20T01:18:07.398Z,69.51
2019-02-20T01:18:38.792Z,69.51
2019-02-20T01:19:10.051Z,69.39
2019-02-20T01:19:41.553Z,69.45
2019-02-20T01:20:12.872Z,69.45
2019-02-20T01:20:44.234Z,69.47
2019-02-20T01:21:15.517Z,69.18
2019-02-20T01:21:46.796Z,69.13
2019-02-20T01:22:18.203Z,69.11
2019-02-20T01:22:59.469Z,69.11
2019-02-20T01:23:22.648Z,69.10
2019-02-20T01:23:53.971Z,69.08
2019-02-20T01:24:25.236Z,69.18
2019-02-20T01:24:56.536Z,69.43
2019-02-20T01:25:27.824Z,69.08
2019-02-20T01:25:59.149Z,69.14
2019-02-20T01:26:30.600Z,69.15
2019-02-20T01:27:01.894Z,69.22
2019-02-20T01:27:33.232Z,69.04
2019-02-20T01:28:04.523Z,69.13
2019-02-20T01:28:35.854Z,69.22
2019-02-20T01:29:07.147Z,69.12
2019-02-20T01:29:38.481Z,69.17
2019-02-20T01:30:11.136Z,68.95
2019-02-20T01:30:42.449Z,68.90
2019-02-20T01:31:13.716Z,69.01
2019-02-20T01:31:45.285Z,68.75
2019-02-20T01:32:16.571Z,68.87
2019-02-20T01:32:47.861Z,68.95
2019-02-20T01:33:19.151Z,68.95
2019-02-20T01:33:50.423Z,68.95
2019-02-20T01:34:21.677Z,68.85
2019-02-20T01:34:52.966Z,68.68
2019-02-20T01:35:24.257Z,68.72
2019-02-20T01:35:55.539Z,68.79
2019-02-20T01:36:26.825Z,68.60
2019-02-20T01:36:58.157Z,68.62
2019-02-20T01:37:29.529Z,68.49
2019-02-20T01:38:00.823Z,68.66
2019-02-20T01:38:32.109Z,68.31
2019-02-20T01:39:04.543Z,68.44
2019-02-20T01:39:37.438Z,68.39
2019-02-20T01:40:08.731Z,68.38
2019-02-20T01:40:40.019Z,68.43
2019-02-20T01:41:11.423Z,68.47
2019-02-20T01:41:42.759Z,68.29
2019-02-20T01:42:14.163Z,68.29
2019-02-20T01:42:45.605Z,68.40
2019-02-20T01:43:16.948Z,68.34
2019-02-20T01:43:48.235Z,68.45
2019-02-20T01:44:19.566Z,68.28
2019-02-20T01:44:50.814Z,68.29
2019-02-20T01:45:22.169Z,68.38
2019-02-20T01:45:53.405Z,68.42
2019-02-20T01:46:24.739Z,68.22
2019-02-20T01:46:55.987Z,68.34
2019-02-20T01:47:27.300Z,68.37
2019-02-20T01:47:58.555Z,68.53
2019-02-20T01:48:29.933Z,68.50
2019-02-20T01:49:01.176Z,68.50
2019-02-20T01:49:32.494Z,68.42
2019-02-20T01:50:05.661Z,68.46
2019-02-20T01:50:37.008Z,68.46
2019-02-20T01:51:08.278Z,68.44
2019-02-20T01:51:39.588Z,68.43
2019-02-20T01:52:10.842Z,68.46
2019-02-20T01:52:42.212Z,68.37
2019-02-20T01:53:13.494Z,68.43
2019-02-20T01:53:45.059Z,68.48
2019-02-20T01:54:16.303Z,68.49
2019-02-20T01:54:47.624Z,68.48
2019-02-20T01:55:19.859Z,68.48
2019-02-20T01:55:51.177Z,68.36
2019-02-20T01:56:22.425Z,68.56
2019-02-20T01:56:53.757Z,68.56
2019-02-20T01:57:25.037Z,68.40
2019-02-20T01:57:56.363Z,68.45
2019-02-20T01:58:27.716Z,68.55
2019-02-20T01:58:59.106Z,68.54
2019-02-20T01:59:30.351Z,68.62
2019-02-20T02:00:01.875Z,68.64
2019-02-20T02:00:33.331Z,68.67
2019-02-20T02:01:04.649Z,68.67
2019-02-20T02:01:35.984Z,68.75
2019-02-20T02:02:07.356Z,68.78
2019-02-20T02:02:38.627Z,68.82
2019-02-20T02:03:09.938Z,68.85
2019-02-20T02:03:41.183Z,68.75
2019-02-20T02:04:12.544Z,68.75
2019-02-20T02:04:43.909Z,68.70
2019-02-20T02:05:16.034Z,68.70
2019-02-20T02:05:47.325Z,68.63
2019-02-20T02:06:18.649Z,68.85
2019-02-20T02:06:49.947Z,68.85
2019-02-20T02:07:21.373Z,68.79
2019-02-20T02:07:52.607Z,68.87
2019-02-20T02:08:24.053Z,68.98
2019-02-20T02:08:55.344Z,68.89
2019-02-20T02:09:26.690Z,68.96
2019-02-20T02:09:58.030Z,68.99
2019-02-20T02:10:29.368Z,68.97
2019-02-20T02:11:00.720Z,69.02
2019-02-20T02:11:32.036Z,68.96
2019-02-20T02:12:03.349Z,69.11
2019-02-20T02:12:34.620Z,69.22
2019-02-20T02:13:06.001Z,69.22
2019-02-20T02:13:37.257Z,68.98
2019-02-20T02:14:08.560Z,68.91
2019-02-20T02:14:40.827Z,69.00
2019-02-20T02:15:19.991Z,69.00
2019-02-20T02:15:46.368Z,69.04
2019-02-20T02:16:17.678Z,69.01
2019-02-20T02:16:48.947Z,69.01
2019-02-20T02:17:20.324Z,68.93
2019-02-20T02:17:51.584Z,68.83
2019-02-20T02:18:22.883Z,68.78
2019-02-20T02:18:54.236Z,68.98
2019-02-20T02:19:25.555Z,69.06
2019-02-20T02:19:56.806Z,69.11
2019-02-20T02:20:28.135Z,68.93
2019-02-20T02:20:59.391Z,69.04
2019-02-20T02:21:30.704Z,69.00
2019-02-20T02:22:01.955Z,69.04
2019-02-20T02:22:33.266Z,69.04
2019-02-20T02:23:04.479Z,69.29
2019-02-20T02:23:35.793Z,69.27
2019-02-20T02:24:07.066Z,69.14
2019-02-20T02:24:38.342Z,69.21
2019-02-20T02:25:09.620Z,69.10
2019-02-20T02:25:40.877Z,69.24
2019-02-20T02:26:12.219Z,69.22
2019-02-20T02:26:43.583Z,69.11
2019-02-20T02:27:15.081Z,69.30
2019-02-20T02:27:46.455Z,69.33
2019-02-20T02:28:17.723Z,69.32
2019-02-20T02:28:50.023Z,69.26
2019-02-20T02:29:21.369Z,69.31
2019-02-20T02:29:52.655Z,69.35
2019-02-20T02:30:23.959Z,69.26
2019-02-20T02:30:55.644Z,69.22
2019-02-20T02:31:26.926Z,69.20
2019-02-20T02:31:58.213Z,69.34
2019-02-20T02:32:29.501Z,69.42
2019-02-20T02:33:01.313Z,69.42
2019-02-20T02:33:32.620Z,69.47
2019-02-20T02:34:03.979Z,69.55
2019-02-20T02:34:35.353Z,69.63
2019-02-20T02:35:06.641Z,69.50
2019-02-20T02:35:37.940Z,69.60
2019-02-20T02:36:10.221Z,69.54
2019-02-20T02:36:41.579Z,69.58
2019-02-20T02:37:13.888Z,69.71
2019-02-20T02:37:45.179Z,69.71
2019-02-20T02:38:16.452Z,69.60
2019-02-20T02:38:47.757Z,69.69
2019-02-20T02:39:19.085Z,69.65
2019-02-20T02:39:50.314Z,70.06
2019-02-20T02:40:21.632Z,69.87
2019-02-20T02:40:53.930Z,69.97
2019-02-20T02:41:25.234Z,69.97
2019-02-20T02:41:56.585Z,69.86
2019-02-20T02:42:28.025Z,70.02
2019-02-20T02:42:59.298Z,70.02
2019-02-20T02:43:30.566Z,70.09
2019-02-20T02:44:01.876Z,70.03
2019-02-20T02:44:33.167Z,70.05
2019-02-20T02:45:04.751Z,69.88
2019-02-20T02:45:36.177Z,69.99
2019-02-20T02:46:07.436Z,70.10
2019-02-20T02:46:38.870Z,70.12
2019-02-20T02:47:10.126Z,70.12
2019-02-20T02:47:41.456Z,69.94
2019-02-20T02:48:12.708Z,70.03
2019-02-20T02:48:44.139Z,70.12
2019-02-20T02:49:15.365Z,70.03
2019-02-20T02:49:46.693Z,70.25
2019-02-20T02:50:17.946Z,70.32
2019-02-20T02:50:49.266Z,70.40
2019-02-20T02:51:20.533Z,70.35
2019-02-20T02:51:51.861Z,70.55
2019-02-20T02:52:23.129Z,70.54
2019-02-20T02:52:54.444Z,70.69
2019-02-20T02:53:30.625Z,70.83
2019-02-20T02:53:58.875Z,70.81
2019-02-20T02:54:30.165Z,70.96
2019-02-20T02:55:01.510Z,70.89
2019-02-20T02:55:32.895Z,71.13
2019-02-20T02:56:06.773Z,71.04
2019-02-20T02:56:38.123Z,71.05
2019-02-20T02:57:09.486Z,71.07
2019-02-20T02:57:40.862Z,71.13
2019-02-20T02:58:12.278Z,71.13
2019-02-20T02:58:43.631Z,71.10
2019-02-20T02:59:15.293Z,71.05
2019-02-20T02:59:47.622Z,71.14
2019-02-20T03:00:18.861Z,71.05
2019-02-20T03:00:50.187Z,71.00
2019-02-20T03:01:21.437Z,70.88
2019-02-20T03:01:52.746Z,70.69
2019-02-20T03:02:24.108Z,70.77
2019-02-20T03:02:55.531Z,70.71
2019-02-20T03:03:26.773Z,70.80
2019-02-20T03:03:58.198Z,70.87
2019-02-20T03:04:29.498Z,70.91
2019-02-20T03:05:00.928Z,70.66
2019-02-20T03:05:32.303Z,70.69
2019-02-20T03:06:03.676Z,70.35
2019-02-20T03:06:35.118Z,70.71
2019-02-20T03:07:06.481Z,70.40
2019-02-20T03:07:37.868Z,70.14
2019-02-20T03:08:09.244Z,70.14
2019-02-20T03:08:41.612Z,70.25
2019-02-20T03:09:13.963Z,70.25
2019-02-20T03:09:45.279Z,70.12
2019-02-20T03:10:16.535Z,70.26
2019-02-20T03:10:47.847Z,70.27
2019-02-20T03:11:19.145Z,70.02
2019-02-20T03:11:50.429Z,70.03
2019-02-20T03:12:21.804Z,70.15
2019-02-20T03:12:53.052Z,70.15
2019-02-20T03:13:24.327Z,70.28
2019-02-20T03:13:55.596Z,70.28
2019-02-20T03:14:27.845Z,70.22
2019-02-20T03:14:59.141Z,70.25
2019-02-20T03:15:30.425Z,70.36
2019-02-20T03:16:01.765Z,70.38
2019-02-20T03:16:33.148Z,70.38
2019-02-20T03:17:05.572Z,70.44
2019-02-20T03:17:36.869Z,70.50
2019-02-20T03:18:08.183Z,70.63
2019-02-20T03:18:39.484Z,70.63
2019-02-20T03:19:10.818Z,70.73
2019-02-20T03:19:42.234Z,70.66
2019-02-20T03:20:13.467Z,70.96
2019-02-20T03:20:44.791Z,70.96
2019-02-20T03:21:16.053Z,71.33
2019-02-20T03:21:47.451Z,71.36
2019-02-20T03:22:18.701Z,71.36
2019-02-20T03:22:50.090Z,71.53
2019-02-20T03:23:21.339Z,71.41
2019-02-20T03:23:52.795Z,71.46
2019-02-20T03:24:24.131Z,71.73
2019-02-20T03:24:55.475Z,71.73
2019-02-20T03:25:26.731Z,71.77
2019-02-20T03:25:58.049Z,71.48
2019-02-20T03:26:29.331Z,71.48
2019-02-20T03:27:00.666Z,71.86
2019-02-20T03:27:31.936Z,71.93
2019-02-20T03:28:03.296Z,71.93
2019-02-20T03:28:34.535Z,71.88
2019-02-20T03:29:05.862Z,72.31
2019-02-20T03:29:37.118Z,72.39
2019-02-20T03:30:08.443Z,72.39
2019-02-20T03:30:39.751Z,72.65
2019-02-20T03:31:11.122Z,72.65
2019-02-20T03:31:42.449Z,72.37
2019-02-20T03:32:13.736Z,72.37
2019-02-20T03:32:45.028Z,72.52
2019-02-20T03:33:16.352Z,72.52
2019-02-20T03:33:47.583Z,72.70
2019-02-20T03:34:18.916Z,72.82
2019-02-20T03:34:50.310Z,72.82
2019-02-20T03:35:21.600Z,72.70
2019-02-20T03:35:52.973Z,72.50
2019-02-20T03:36:24.263Z,72.56
2019-02-20T03:36:55.538Z,72.70
2019-02-20T03:37:26.805Z,72.70
2019-02-20T03:37:58.089Z,72.73
2019-02-20T03:38:30.588Z,72.58
2019-02-20T03:39:02.179Z,72.70
2019-02-20T03:39:35.360Z,72.75
2019-02-20T03:40:07.329Z,72.73
2019-02-20T03:40:38.701Z,72.52
2019-02-20T03:41:09.986Z,72.61
2019-02-20T03:41:41.521Z,72.67
2019-02-20T03:42:12.787Z,72.50
2019-02-20T03:42:44.092Z,72.44
2019-02-20T03:43:15.370Z,72.53
2019-02-20T03:43:46.721Z,72.56
2019-02-20T03:44:18.008Z,72.70
2019-02-20T03:44:49.252Z,72.62
2019-02-20T03:45:20.625Z,72.77
2019-02-20T03:45:51.901Z,72.59
2019-02-20T03:46:23.163Z,72.46
2019-02-20T03:46:54.458Z,72.35
2019-02-20T03:47:25.748Z,72.62
2019-02-20T03:47:57.140Z,72.50
2019-02-20T03:48:28.439Z,72.49
2019-02-20T03:48:59.720Z,72.49
2019-02-20T03:49:31.016Z,72.35
2019-02-20T03:50:02.422Z,72.35
2019-02-20T03:50:33.701Z,72.36
2019-02-20T03:51:05.002Z,72.43
2019-02-20T03:51:36.246Z,72.19
2019-02-20T03:52:07.574Z,72.15
2019-02-20T03:52:38.800Z,72.53
2019-02-20T03:53:10.112Z,72.20
2019-02-20T03:53:50.876Z,72.12
2019-02-20T03:54:14.580Z,72.37
2019-02-20T03:54:45.819Z,72.09
2019-02-20T03:55:18.234Z,72.09
2019-02-20T03:55:49.532Z,72.18
2019-02-20T03:56:21.840Z,72.18
2019-02-20T03:56:53.064Z,72.08
2019-02-20T03:57:24.394Z,71.98
2019-02-20T03:57:55.646Z,71.98
2019-02-20T03:58:26.976Z,72.06
2019-02-20T03:58:58.230Z,72.06
2019-02-20T03:59:29.569Z,71.95
2019-02-20T04:00:00.904Z,71.92
2019-02-20T04:00:32.176Z,72.12
2019-02-20T04:01:03.435Z,71.94
2019-02-20T04:01:34.749Z,71.96
2019-02-20T04:02:06.004Z,72.12
2019-02-20T04:02:37.353Z,72.12
2019-02-20T04:03:08.664Z,71.88
2019-02-20T04:03:39.999Z,72.01
2019-02-20T04:04:11.262Z,72.02
2019-02-20T04:04:42.577Z,72.02
2019-02-20T04:05:13.890Z,71.83
2019-02-20T04:05:45.291Z,71.57
2019-02-20T04:06:16.577Z,71.57
2019-02-20T04:06:47.842Z,71.53
2019-02-20T04:07:19.167Z,71.53
2019-02-20T04:07:50.493Z,71.73
2019-02-20T04:08:21.779Z,71.57
2019-02-20T04:08:53.063Z,71.57
2019-02-20T04:09:24.384Z,71.61
2019-02-20T04:09:55.744Z,71.50
2019-02-20T04:10:27.007Z,71.46
2019-02-20T04:10:58.332Z,71.52
2019-02-20T04:11:29.623Z,71.53
2019-02-20T04:12:00.910Z,71.53
2019-02-20T04:12:32.153Z,71.42
2019-02-20T04:13:03.448Z,71.59
2019-02-20T04:13:34.688Z,71.51
2019-02-20T04:14:06.030Z,71.50
2019-02-20T04:14:37.322Z,71.51
2019-02-20T04:15:08.605Z,71.38
2019-02-20T04:15:39.904Z,71.44
2019-02-20T04:16:11.230Z,71.42
2019-02-20T04:16:42.484Z,71.40
2019-02-20T04:17:13.830Z,71.24
2019-02-20T04:17:45.228Z,71.22
2019-02-20T04:18:16.494Z,71.22
2019-02-20T04:18:47.771Z,71.33
2019-02-20T04:19:19.062Z,71.40
2019-02-20T04:19:50.348Z,71.55
2019-02-20T04:20:21.653Z,71.52
2019-02-20T04:20:53.994Z,71.67
2019-02-20T04:21:25.314Z,71.52
2019-02-20T04:21:56.566Z,71.66
2019-02-20T04:22:27.891Z,71.61
2019-02-20T04:22:59.126Z,71.38
2019-02-20T04:23:30.440Z,71.83
2019-02-20T04:24:02.974Z,71.46
2019-02-20T04:24:34.500Z,71.84
2019-02-20T04:25:05.743Z,72.02
2019-02-20T04:25:37.063Z,72.25
2019-02-20T04:26:09.819Z,72.25
2019-02-20T04:26:41.436Z,72.11
2019-02-20T04:27:12.702Z,72.45
2019-02-20T04:27:44.003Z,72.45
2019-02-20T04:28:15.377Z,72.62
2019-02-20T04:28:46.668Z,72.78
2019-02-20T04:29:17.925Z,73.07
2019-02-20T04:29:49.249Z,73.07
2019-02-20T04:30:20.581Z,73.38
2019-02-20T04:30:51.879Z,73.35
2019-02-20T04:31:23.180Z,73.41
2019-02-20T04:31:54.448Z,73.41
2019-02-20T04:32:25.831Z,73.54
2019-02-20T04:32:58.449Z,73.45
2019-02-20T04:33:29.988Z,73.87
2019-02-20T04:34:01.356Z,73.87
2019-02-20T04:34:32.679Z,73.82
2019-02-20T04:35:04.166Z,73.70
2019-02-20T04:35:35.451Z,73.75
2019-02-20T04:36:06.675Z,73.49
2019-02-20T04:36:38.031Z,73.74
2019-02-20T04:37:09.305Z,73.74
2019-02-20T04:37:40.695Z,73.49
2019-02-20T04:38:12.062Z,73.70
2019-02-20T04:38:43.398Z,73.70
2019-02-20T04:39:14.661Z,73.35
2019-02-20T04:39:46.061Z,73.35
2019-02-20T04:40:17.308Z,73.42
2019-02-20T04:40:48.643Z,73.42
2019-02-20T04:41:19.966Z,73.19
2019-02-20T04:41:51.309Z,72.45
2019-02-20T04:42:22.551Z,72.53
2019-02-20T04:42:53.843Z,72.67
2019-02-20T04:43:25.141Z,72.81
2019-02-20T04:43:56.409Z,72.49
2019-02-20T04:44:27.634Z,72.56
2019-02-20T04:44:58.918Z,72.60
2019-02-20T04:45:30.174Z,72.64
2019-02-20T04:46:01.455Z,72.49
2019-02-20T04:46:32.840Z,72.49
2019-02-20T04:47:05.121Z,71.97
2019-02-20T04:47:36.380Z,72.26
2019-02-20T04:48:07.676Z,72.12
2019-02-20T04:48:39.047Z,71.97
2019-02-20T04:49:10.337Z,71.59
2019-02-20T04:49:41.598Z,71.59
2019-02-20T04:50:12.873Z,71.67
2019-02-20T04:50:44.454Z,71.81
2019-02-20T04:51:15.696Z,71.71
2019-02-20T04:51:47.033Z,71.71
2019-02-20T04:52:19.307Z,71.61
2019-02-20T04:52:50.691Z,71.70
2019-02-20T04:53:21.947Z,71.70
2019-02-20T04:53:53.258Z,71.72
2019-02-20T04:54:24.600Z,71.40
2019-02-20T04:54:55.986Z,71.34
2019-02-20T04:55:27.231Z,71.59
2019-02-20T04:55:58.568Z,71.34
2019-02-20T04:56:29.823Z,71.39
2019-02-20T04:57:01.120Z,71.37
2019-02-20T04:57:32.385Z,71.51
2019-02-20T04:58:14.095Z,71.33
2019-02-20T04:58:49.229Z,71.32
2019-02-20T04:59:20.539Z,71.32
2019-02-20T04:59:51.771Z,71.27
2019-02-20T05:00:23.120Z,71.07
2019-02-20T05:00:54.454Z,71.31
2019-02-20T05:01:26.241Z,71.30
2019-02-20T05:01:57.547Z,71.30
2019-02-20T05:02:29.826Z,71.40
2019-02-20T05:03:02.200Z,71.32
2019-02-20T05:03:33.478Z,71.47
2019-02-20T05:04:04.815Z,71.34
2019-02-20T05:04:36.191Z,71.30
2019-02-20T05:05:07.545Z,71.30
2019-02-20T05:05:38.843Z,71.16
2019-02-20T05:06:10.129Z,71.15
2019-02-20T05:06:41.534Z,71.15
2019-02-20T05:07:12.810Z,71.37
2019-02-20T05:07:44.210Z,71.29
2019-02-20T05:08:15.493Z,71.24
2019-02-20T05:08:46.873Z,71.21
2019-02-20T05:09:18.252Z,71.21
2019-02-20T05:09:49.556Z,71.36
2019-02-20T05:10:20.833Z,71.19
2019-02-20T05:10:52.115Z,71.40
2019-02-20T05:11:23.394Z,71.48
2019-02-20T05:11:54.809Z,71.56
2019-02-20T05:12:26.089Z,71.16
2019-02-20T05:12:57.352Z,71.20
2019-02-20T05:13:28.676Z,71.27
2019-02-20T05:13:59.928Z,71.33
2019-02-20T05:14:31.245Z,71.60
2019-02-20T05:15:03.701Z,71.39
2019-02-20T05:15:35.198Z,71.23
2019-02-20T05:16:06.467Z,71.23
2019-02-20T05:16:37.816Z,71.21
2019-02-20T05:17:09.164Z,71.17
2019-02-20T05:17:40.523Z,71.33
2019-02-20T05:18:12.035Z,71.29
2019-02-20T05:18:43.416Z,71.35
2019-02-20T05:19:15.873Z,71.38
2019-02-20T05:19:47.230Z,71.38
2019-02-20T05:20:18.598Z,71.28
2019-02-20T05:20:49.948Z,71.31
2019-02-20T05:21:21.291Z,71.23
2019-02-20T05:21:52.585Z,71.23
2019-02-20T05:22:23.880Z,70.85
2019-02-20T05:22:55.145Z,70.85
2019-02-20T05:23:26.418Z,71.14
2019-02-20T05:23:57.700Z,71.18
2019-02-20T05:24:28.965Z,71.13
2019-02-20T05:25:00.331Z,71.20
2019-02-20T05:25:31.606Z,71.20
2019-02-20T05:26:02.911Z,71.21
2019-02-20T05:26:34.167Z,71.06
2019-02-20T05:27:05.470Z,70.72
2019-02-20T05:27:36.733Z,70.70
2019-02-20T05:28:08.021Z,70.54
2019-02-20T05:28:39.373Z,70.71
2019-02-20T05:29:10.744Z,70.39
2019-02-20T05:29:42.055Z,70.39
2019-02-20T05:30:13.353Z,70.36
2019-02-20T05:30:44.633Z,70.40
2019-02-20T05:31:16.633Z,70.44
2019-02-20T05:31:48.092Z,70.48
2019-02-20T05:32:19.424Z,70.37
2019-02-20T05:32:50.662Z,70.30
2019-02-20T05:33:21.944Z,70.57
2019-02-20T05:33:53.175Z,70.58
2019-02-20T05:34:24.514Z,70.66
2019-02-20T05:34:55.755Z,70.66
2019-02-20T05:35:27.151Z,70.72
2019-02-20T05:35:58.431Z,70.59
2019-02-20T05:36:29.770Z,70.59
2019-02-20T05:37:01.044Z,70.81
2019-02-20T05:37:32.479Z,70.81
2019-02-20T05:38:03.793Z,70.78
2019-02-20T05:38:35.132Z,70.90
2019-02-20T05:39:06.352Z,70.82
2019-02-20T05:39:38.683Z,70.75
2019-02-20T05:40:09.906Z,70.85
2019-02-20T05:40:41.438Z,70.81
2019-02-20T05:41:12.668Z,70.83
2019-02-20T05:41:43.982Z,70.91
2019-02-20T05:42:15.259Z,70.90
2019-02-20T05:42:48.306Z,70.91
2019-02-20T05:43:19.687Z,70.97
2019-02-20T05:43:51.017Z,71.07
2019-02-20T05:44:22.346Z,71.01
2019-02-20T05:44:53.641Z,71.06
2019-02-20T05:45:24.877Z,71.08
2019-02-20T05:45:56.192Z,71.14
2019-02-20T05:46:27.560Z,71.16
2019-02-20T05:46:58.921Z,71.17
2019-02-20T05:47:30.299Z,71.25
2019-02-20T05:48:01.618Z,71.14
2019-02-20T05:48:34.051Z,71.26
2019-02-20T05:49:05.405Z,71.35
2019-02-20T05:49:36.774Z,71.32
2019-02-20T05:50:08.135Z,71.43
2019-02-20T05:50:39.445Z,71.44
2019-02-20T05:51:10.893Z,71.47
2019-02-20T05:51:42.244Z,71.49
2019-02-20T05:52:13.486Z,71.35
2019-02-20T05:52:44.979Z,71.36
2019-02-20T05:53:16.208Z,71.36
2019-02-20T05:53:47.517Z,71.46
2019-02-20T05:54:18.755Z,71.36
2019-02-20T05:54:50.068Z,71.23
2019-02-20T05:55:21.319Z,71.26
2019-02-20T05:55:52.604Z,71.26
2019-02-20T05:56:23.844Z,71.20
2019-02-20T05:56:55.163Z,71.07
2019-02-20T05:57:26.400Z,71.08
2019-02-20T05:57:57.728Z,71.11
2019-02-20T05:58:28.987Z,71.10
2019-02-20T05:59:01.397Z,70.96
2019-02-20T05:59:32.634Z,70.96
2019-02-20T06:00:10.891Z,70.94
2019-02-20T06:00:42.226Z,70.75
2019-02-20T06:01:13.534Z,70.85
2019-02-20T06:01:44.829Z,70.83
2019-02-20T06:02:16.170Z,70.98
2019-02-20T06:02:47.555Z,70.91
2019-02-20T06:03:19.000Z,71.00
2019-02-20T06:03:50.346Z,71.00
2019-02-20T06:04:21.697Z,70.87
2019-02-20T06:04:53.050Z,70.87
2019-02-20T06:05:24.428Z,70.40
2019-02-20T06:05:55.754Z,70.40
2019-02-20T06:06:27.124Z,70.63
2019-02-20T06:06:58.441Z,70.63
2019-02-20T06:07:29.967Z,70.62
2019-02-20T06:08:01.402Z,70.63
2019-02-20T06:08:32.632Z,70.64
2019-02-20T06:09:04.437Z,70.64
2019-02-20T06:09:37.386Z,70.54
2019-02-20T06:10:08.735Z,70.45
2019-02-20T06:10:40.086Z,70.56
2019-02-20T06:11:14.862Z,70.55
2019-02-20T06:11:44.752Z,70.55
2019-02-20T06:12:16.188Z,70.45
2019-02-20T06:12:47.667Z,70.54
2019-02-20T06:13:18.894Z,70.54
2019-02-20T06:13:50.306Z,70.39
2019-02-20T06:14:21.539Z,70.35
2019-02-20T06:14:52.870Z,70.36
2019-02-20T06:15:24.118Z,70.44
2019-02-20T06:15:55.465Z,70.29
2019-02-20T06:16:26.826Z,70.29
2019-02-20T06:16:58.154Z,70.32
2019-02-20T06:17:29.386Z,70.33
2019-02-20T06:18:00.715Z,70.35
2019-02-20T06:18:31.980Z,70.25
2019-02-20T06:19:03.378Z,70.31
2019-02-20T06:19:34.590Z,70.31
2019-02-20T06:20:08.494Z,70.39
2019-02-20T06:20:39.731Z,70.35
2019-02-20T06:21:11.044Z,70.53
2019-02-20T06:21:42.349Z,70.50
2019-02-20T06:22:13.705Z,70.23
2019-02-20T06:22:44.968Z,70.26
2019-02-20T06:23:16.288Z,70.26
2019-02-20T06:23:47.518Z,70.33
2019-02-20T06:24:18.810Z,70.37
2019-02-20T06:24:50.058Z,70.31
2019-02-20T06:25:21.387Z,70.33
2019-02-20T06:25:52.704Z,70.26
2019-02-20T06:26:25.138Z,70.44
2019-02-20T06:26:56.547Z,70.44
2019-02-20T06:27:28.004Z,70.44
2019-02-20T06:27:59.336Z,70.51
2019-02-20T06:28:30.689Z,70.57
2019-02-20T06:29:02.070Z,70.62
2019-02-20T06:29:33.497Z,70.64
2019-02-20T06:30:09.346Z,70.67
2019-02-20T06:30:40.830Z,70.64
2019-02-20T06:31:12.529Z,70.67
2019-02-20T06:31:43.844Z,70.67
2019-02-20T06:32:15.171Z,70.71
2019-02-20T06:32:46.420Z,70.72
2019-02-20T06:33:17.740Z,70.79
2019-02-20T06:33:48.972Z,70.84
2019-02-20T06:34:20.630Z,70.88
2019-02-20T06:34:51.897Z,70.88
2019-02-20T06:35:23.187Z,70.88
2019-02-20T06:35:54.417Z,70.86
2019-02-20T06:36:25.757Z,70.91
2019-02-20T06:36:57.091Z,70.91
2019-02-20T06:37:28.386Z,70.95
2019-02-20T06:37:59.619Z,70.98
2019-02-20T06:38:30.939Z,71.02
2019-02-20T06:39:02.903Z,71.08
2019-02-20T06:39:35.321Z,71.10
2019-02-20T06:40:08.150Z,71.17
2019-02-20T06:40:39.437Z,71.17
2019-02-20T06:41:10.695Z,71.13
2019-02-20T06:41:42.254Z,71.29
2019-02-20T06:42:13.532Z,71.24
2019-02-20T06:42:44.980Z,71.29
2019-02-20T06:43:16.315Z,71.29
2019-02-20T06:43:48.597Z,71.37
2019-02-20T06:44:19.968Z,71.42
2019-02-20T06:44:51.199Z,71.46
2019-02-20T06:45:22.518Z,71.52
2019-02-20T06:45:53.848Z,71.02
2019-02-20T06:46:25.143Z,71.31
2019-02-20T06:46:56.387Z,71.31